Time;durP1;ratioP1;P1;durP2;ratioP2;P2;SDS_P1;SDS_P2;PMS_P1;PMS_P2;Temp;Humidity;BMP_temperature;BMP_pressure;BME280_temperature;BME280_humidity;BME280_pressure;Samples;Min_cycle;Max_cycle;Signal;HPM_P1;HPM_P2
2022/08/27 00:01:15;;;;;;;18.17;11.13;;;;;;;19.00;95.95;101467.72;4975053;28;20034;-66
2022/08/27 00:03:45;;;;;;;19.08;12.25;;;;;;;18.99;96.08;101468.72;4957697;28;20034;-66
2022/08/27 00:06:13;;;;;;;13.95;11.00;;;;;;;19.00;96.13;101462.25;4974776;28;20035;-65
2022/08/27 00:08:40;;;;;;;26.70;12.63;;;;;;;18.99;96.00;101464.13;4957647;28;20447;-66
2022/08/27 00:11:06;;;;;;;22.88;11.15;;;;;;;19.01;96.08;101463.97;4957555;28;20074;-65
2022/08/27 00:13:32;;;;;;;21.05;11.85;;;;;;;19.00;95.91;101459.53;4957466;28;20066;-66
2022/08/27 00:15:57;;;;;;;21.63;12.38;;;;;;;19.03;96.20;101454.63;4975200;28;20489;-65
2022/08/27 00:18:23;;;;;;;19.63;11.35;;;;;;;19.01;95.90;101451.19;4974819;28;20030;-66
2022/08/27 00:20:49;;;;;;;17.80;11.40;;;;;;;19.04;96.38;101450.00;4974926;28;20041;-66
2022/08/27 00:23:15;;;;;;;18.02;11.98;;;;;;;19.05;96.22;101458.03;4957104;28;20034;-66
2022/08/27 00:25:41;;;;;;;19.80;11.75;;;;;;;19.05;95.80;101446.28;4957510;28;20046;-65
2022/08/27 00:28:06;;;;;;;23.02;12.13;;;;;;;19.08;95.57;101446.78;4975174;28;20535;-66
2022/08/27 00:30:32;;;;;;;20.63;11.75;;;;;;;19.09;95.80;101447.66;4974632;28;20045;-66
2022/08/27 00:32:58;;;;;;;21.83;12.40;;;;;;;19.09;96.12;101447.66;4974856;28;20404;-66
2022/08/27 00:35:23;;;;;;;18.02;11.40;;;;;;;19.11;95.58;101448.34;4974679;28;20101;-66
2022/08/27 00:37:49;;;;;;;19.35;11.93;;;;;;;19.14;95.89;101456.19;4974725;28;20038;-66
2022/08/27 00:40:18;;;;;;;20.02;12.07;;;;;;;19.17;95.71;101456.75;4957080;28;20121;-65
2022/08/27 00:42:44;;;;;;;21.20;11.25;;;;;;;19.17;95.74;101459.47;4974512;28;20118;-66
2022/08/27 00:45:12;;;;;;;11.57;10.02;;;;;;;19.19;95.38;101459.31;4974098;28;20583;-65
2022/08/27 00:47:44;;;;;;;21.52;10.90;;;;;;;19.20;95.53;101463.72;4974170;28;20071;-66
2022/08/27 00:50:14;;;;;;;19.08;11.40;;;;;;;19.22;95.64;101456.25;4974294;28;20468;-66
2022/08/27 00:52:51;;;;;;;20.77;11.70;;;;;;;19.25;95.38;101453.19;4956884;28;20034;-67
2022/08/27 00:55:23;;;;;;;14.73;10.18;;;;;;;19.24;95.71;101455.06;4974061;28;20043;-67
2022/08/27 00:58:20;;;;;;;14.93;10.63;;;;;;;19.26;95.52;101454.91;4974497;28;20472;-66
2022/08/27 01:00:46;;;;;;;21.33;11.60;;;;;;;19.27;95.45;101448.44;4956795;28;20078;-65
2022/08/27 01:03:13;;;;;;;17.85;10.95;;;;;;;19.26;95.64;101454.91;4956431;28;20393;-67
2022/08/27 01:05:40;;;;;;;17.65;10.75;;;;;;;19.25;95.47;101453.19;4973646;28;20034;-66
2022/08/27 01:08:10;;;;;;;17.77;11.38;;;;;;;19.27;95.48;101448.44;4973987;28;20042;-65
2022/08/27 01:10:38;;;;;;;16.58;11.23;;;;;;;19.26;95.57;101440.41;4973718;28;20039;-67
2022/08/27 01:13:07;;;;;;;22.83;11.30;;;;;;;19.23;95.19;101447.06;4956474;28;20033;-67
2022/08/27 01:15:33;;;;;;;18.77;10.88;;;;;;;19.25;95.65;101445.00;4956595;28;20472;-66
2022/08/27 01:18:01;;;;;;;20.52;10.60;;;;;;;19.22;95.69;101442.63;4956491;28;20034;-66
2022/08/27 01:20:33;;;;;;;18.52;11.77;;;;;;;19.20;95.92;101452.84;4974307;28;20487;-67
2022/08/27 01:23:19;;;;;;;20.63;11.65;;;;;;;19.23;95.91;101449.78;4973458;28;20031;-68
2022/08/27 01:25:45;;;;;;;22.38;11.50;;;;;;;19.22;95.67;101453.53;4956476;28;20050;-65
2022/08/27 01:28:12;;;;;;;21.38;11.10;;;;;;;19.29;95.86;101453.72;4956428;28;20541;-65
2022/08/27 01:30:39;;;;;;;18.58;11.55;;;;;;;19.26;95.20;101449.44;4956306;28;20042;-66
2022/08/27 01:33:14;;;;;;;27.88;12.32;;;;;;;19.19;95.58;101448.41;4955975;28;20023;-67
2022/08/27 01:35:42;;;;;;;21.38;10.80;;;;;;;19.16;95.98;101443.28;4972964;28;20105;-66
2022/08/27 01:38:09;;;;;;;14.95;10.88;;;;;;;19.17;96.04;101447.72;4973316;28;20498;-64
2022/08/27 01:40:35;;;;;;;20.35;11.82;;;;;;;19.20;95.85;101444.66;4973484;28;20113;-66
2022/08/27 01:43:02;;;;;;;21.15;13.18;;;;;;;19.18;95.58;101443.97;4955772;28;20502;-67
2022/08/27 01:45:32;;;;;;;19.42;12.77;;;;;;;19.13;96.21;101447.16;4973239;28;20031;-66
2022/08/27 01:47:58;;;;;;;22.73;12.00;;;;;;;19.09;95.78;101447.66;4973124;28;20173;-66
2022/08/27 01:50:34;;;;;;;21.58;10.88;;;;;;;19.12;96.08;101450.03;4955784;28;20121;-66
2022/08/27 01:53:06;;;;;;;34.72;11.95;;;;;;;19.17;95.83;101450.44;4955863;28;20034;-66
2022/08/27 01:55:33;;;;;;;20.60;11.82;;;;;;;19.15;95.92;101447.03;4973177;28;20062;-67
2022/08/27 01:57:58;;;;;;;14.98;11.10;;;;;;;19.13;96.18;101446.31;4973352;28;20037;-66
2022/08/27 02:00:28;;;;;;;17.50;10.35;;;;;;;19.18;95.73;101450.28;4973209;28;20491;-67
2022/08/27 02:02:55;;;;;;;14.35;10.63;;;;;;;19.28;95.43;101446.56;4973156;28;20046;-67
2022/08/27 02:05:21;;;;;;;15.68;10.93;;;;;;;19.32;95.34;101440.63;4973415;28;20030;-66
2022/08/27 02:07:47;;;;;;;19.40;12.05;;;;;;;19.36;95.65;101439.28;4973012;28;20030;-66
2022/08/27 02:10:18;;;;;;;17.30;11.13;;;;;;;19.40;95.42;101440.66;4955742;28;20061;-65
2022/08/27 02:12:44;;;;;;;16.33;10.95;;;;;;;19.40;95.10;101440.66;4973185;28;20066;-68
2022/08/27 02:15:10;;;;;;;17.02;11.90;;;;;;;19.45;95.56;101442.88;4955389;28;20042;-67
2022/08/27 02:17:37;;;;;;;20.63;11.45;;;;;;;19.48;94.96;101435.25;4955781;28;20030;-67
2022/08/27 02:20:05;;;;;;;19.27;11.75;;;;;;;19.50;95.22;101433.22;4973142;28;20037;-66
2022/08/27 02:22:31;;;;;;;14.75;10.48;;;;;;;19.52;95.18;101433.03;4973018;28;20427;-66
2022/08/27 02:24:56;;;;;;;22.17;10.73;;;;;;;19.53;94.55;101423.84;4955320;28;20038;-66
2022/08/27 02:27:22;;;;;;;21.45;11.80;;;;;;;19.50;94.59;101414.13;4971700;28;20375;-66
2022/08/27 02:29:48;;;;;;;18.70;10.77;;;;;;;19.53;94.94;101419.25;4972893;28;20041;-67
2022/08/27 02:32:15;;;;;;;19.50;11.38;;;;;;;19.56;94.74;101419.97;4972791;28;20443;-67
2022/08/27 02:34:40;;;;;;;22.77;11.20;;;;;;;19.55;95.00;101421.84;4955720;28;20038;-68
2022/08/27 02:37:06;;;;;;;18.40;11.05;;;;;;;19.56;94.44;101422.69;4955713;28;20043;-66
2022/08/27 02:39:33;;;;;;;13.82;10.35;;;;;;;19.53;94.29;101416.50;4955267;28;20030;-66
2022/08/27 02:41:59;;;;;;;16.23;11.52;;;;;;;19.55;94.40;101415.53;4955378;28;20077;-67
2022/08/27 02:44:25;;;;;;;16.00;10.75;;;;;;;19.58;94.24;101417.91;4955462;28;20034;-66
2022/08/27 02:46:51;;;;;;;19.75;11.93;;;;;;;19.59;94.32;101422.34;4972637;28;20496;-66
2022/08/27 02:49:17;;;;;;;16.58;11.50;;;;;;;19.58;94.51;101416.03;4976085;28;20079;-66
2022/08/27 02:51:42;;;;;;;15.43;10.40;;;;;;;19.58;93.98;101416.03;4976675;28;20096;-66
2022/08/27 02:54:09;;;;;;;16.38;11.00;;;;;;;19.58;94.70;101416.03;4976587;28;20169;-66
2022/08/27 02:56:35;;;;;;;14.50;11.90;;;;;;;19.55;94.25;101410.94;4976567;28;20038;-67
2022/08/27 02:59:00;;;;;;;15.80;11.60;;;;;;;19.55;94.51;101404.63;4976270;28;20039;-66
2022/08/27 03:01:27;;;;;;;14.45;10.38;;;;;;;19.57;94.81;101399.84;4976492;28;20109;-67
2022/08/27 03:03:52;;;;;;;13.55;11.30;;;;;;;19.57;94.44;101406.16;4958929;28;20035;-67
2022/08/27 03:06:18;;;;;;;17.00;11.25;;;;;;;19.55;94.85;101405.47;4976548;28;20414;-66
2022/08/27 03:08:44;;;;;;;13.98;11.25;;;;;;;19.58;94.52;101398.81;4958548;28;20037;-67
2022/08/27 03:11:09;;;;;;;18.60;11.65;;;;;;;19.56;94.42;101390.81;4976024;28;20494;-67
2022/08/27 03:13:36;;;;;;;21.98;11.48;;;;;;;19.59;95.01;101389.63;4976046;28;20026;-68
2022/08/27 03:16:03;;;;;;;18.48;11.18;;;;;;;19.59;94.58;101395.06;4976169;28;20111;-66
2022/08/27 03:18:28;;;;;;;19.70;11.05;;;;;;;19.60;94.93;101391.31;4958852;28;20035;-66
2022/08/27 03:20:55;;;;;;;20.77;11.45;;;;;;;19.62;95.07;101394.72;4976315;28;20034;-66
2022/08/27 03:23:25;;;;;;;22.35;12.23;;;;;;;19.61;94.62;101398.47;4975803;28;20042;-66
2022/08/27 03:25:53;;;;;;;20.00;11.68;;;;;;;19.57;95.19;101391.66;4975384;28;20169;-67
2022/08/27 03:28:21;;;;;;;23.00;12.35;;;;;;;19.55;95.68;101390.97;4975740;28;20031;-67
2022/08/27 03:30:50;;;;;;;18.00;11.38;;;;;;;19.55;95.58;101393.72;4975812;28;20475;-66
2022/08/27 03:33:18;;;;;;;17.98;10.77;;;;;;;19.51;95.39;101387.69;4975677;28;20042;-68
2022/08/27 03:35:45;;;;;;;20.35;12.13;;;;;;;19.48;95.50;101399.81;4975809;28;20085;-67
2022/08/27 03:38:11;;;;;;;17.63;11.15;;;;;;;19.46;95.57;101396.34;4975773;28;20131;-67
2022/08/27 03:40:37;;;;;;;19.80;12.27;;;;;;;19.45;96.05;101394.66;4975557;28;20102;-67
2022/08/27 03:43:03;;;;;;;20.58;13.35;;;;;;;19.45;96.01;101389.19;4975819;28;20035;-68
2022/08/27 03:45:28;;;;;;;20.15;12.15;;;;;;;19.46;95.67;101396.34;4958166;28;20033;-67
2022/08/27 03:47:54;;;;;;;18.05;11.38;;;;;;;19.46;96.35;101400.97;4975469;28;20030;-68
2022/08/27 03:50:20;;;;;;;19.13;12.63;;;;;;;19.43;95.99;101391.25;4957979;28;20134;-66
2022/08/27 03:52:46;;;;;;;18.73;11.98;;;;;;;19.41;96.36;101393.28;4958186;28;20069;-67
2022/08/27 03:55:11;;;;;;;18.67;11.50;;;;;;;19.38;96.67;101390.88;4975163;28;20391;-69
2022/08/27 03:57:37;;;;;;;15.98;12.68;;;;;;;19.38;96.83;101385.44;4958112;28;20408;-67
2022/08/27 04:00:07;;;;;;;21.75;13.48;;;;;;;19.33;96.74;101393.25;4957940;28;20094;-67
2022/08/27 04:02:33;;;;;;;19.27;12.65;;;;;;;19.31;96.72;101386.25;4975282;28;20089;-68
2022/08/27 04:04:58;;;;;;;18.75;13.60;;;;;;;19.34;96.82;101383.22;4975062;28;20443;-67
2022/08/27 04:07:24;;;;;;;18.88;12.85;;;;;;;19.34;97.07;101386.78;4957560;28;20109;-67
2022/08/27 04:09:50;;;;;;;17.38;12.90;;;;;;;19.32;96.93;101383.38;4974894;28;20038;-67
2022/08/27 04:12:15;;;;;;;18.83;12.63;;;;;;;19.33;97.25;101382.38;4975087;28;20085;-67
2022/08/27 04:14:41;;;;;;;22.50;13.70;;;;;;;19.29;96.88;101371.94;4974985;28;20472;-66
2022/08/27 04:17:06;;;;;;;19.85;14.10;;;;;;;19.29;97.53;101378.22;4957380;28;20479;-68
2022/08/27 04:19:33;;;;;;;18.60;13.52;;;;;;;19.32;97.72;101385.25;4957367;28;20038;-68
2022/08/27 04:22:03;;;;;;;21.02;13.02;;;;;;;19.38;96.96;101382.72;4957582;28;20035;-66
2022/08/27 04:24:31;;;;;;;17.75;12.85;;;;;;;19.45;97.33;101378.28;4957382;28;20058;-66
2022/08/27 04:26:59;;;;;;;21.20;13.80;;;;;;;19.48;96.88;101385.28;4974314;28;20077;-66
2022/08/27 04:29:25;;;;;;;21.52;14.50;;;;;;;19.51;96.92;101380.38;4974760;28;20080;-66
2022/08/27 04:31:51;;;;;;;18.70;13.45;;;;;;;19.53;96.44;101381.06;4957338;28;20035;-67
2022/08/27 04:34:17;;;;;;;16.90;13.90;;;;;;;19.57;96.80;101383.47;4974623;28;20030;-67
2022/08/27 04:36:44;;;;;;;23.63;14.25;;;;;;;19.59;96.35;101384.16;4956968;28;20038;-66
2022/08/27 04:39:11;;;;;;;16.73;13.50;;;;;;;19.59;96.65;101381.44;4974208;28;20468;-66
2022/08/27 04:41:37;;;;;;;21.08;13.32;;;;;;;19.60;96.82;101374.97;4974559;28;20105;-67
2022/08/27 04:44:07;;;;;;;20.08;13.70;;;;;;;19.56;96.60;101379.03;4974612;28;20130;-67
2022/08/27 04:46:36;;;;;;;19.23;14.98;;;;;;;19.58;96.84;101368.81;4974429;28;20035;-67
2022/08/27 04:49:05;;;;;;;22.58;14.68;;;;;;;19.66;96.92;101366.13;4974050;28;20067;-68
2022/08/27 04:51:32;;;;;;;19.25;14.88;;;;;;;19.69;96.82;101358.47;4974139;28;20364;-67
2022/08/27 04:53:59;;;;;;;20.33;14.27;;;;;;;19.77;96.39;101361.19;4974359;28;20039;-67
2022/08/27 04:56:24;;;;;;;16.85;13.75;;;;;;;19.81;95.93;101356.22;4974049;28;20118;-67
2022/08/27 04:58:51;;;;;;;24.15;13.65;;;;;;;19.88;96.02;101357.28;4974069;28;20122;-68
2022/08/27 05:01:19;;;;;;;20.08;14.57;;;;;;;19.95;95.81;101358.31;4973854;28;20049;-67
2022/08/27 05:03:45;;;;;;;21.88;14.38;;;;;;;20.05;95.31;101353.53;4974062;28;20118;-66
2022/08/27 05:06:11;;;;;;;17.55;13.90;;;;;;;20.05;94.68;101355.41;4973876;28;20038;-67
2022/08/27 05:08:38;;;;;;;24.88;14.63;;;;;;;19.95;94.50;101346.53;4973959;28;20035;-67
2022/08/27 05:11:08;;;;;;;25.65;14.40;;;;;;;19.93;95.84;101352.16;4972889;28;20030;-67
2022/08/27 05:13:34;;;;;;;15.82;12.35;;;;;;;19.98;95.57;101341.59;4973997;28;20045;-67
2022/08/27 05:16:04;;;;;;;19.23;13.73;;;;;;;20.04;94.63;101340.91;4973893;28;20036;-68
2022/08/27 05:18:30;;;;;;;15.98;13.15;;;;;;;20.08;94.94;101341.44;4973972;28;20042;-66
2022/08/27 05:20:57;;;;;;;17.90;13.52;;;;;;;20.23;94.41;101338.88;4956149;28;20034;-66
2022/08/27 05:23:23;;;;;;;20.95;13.23;;;;;;;20.34;94.47;101344.00;4973755;28;20030;-67
2022/08/27 05:25:50;;;;;;;22.50;14.68;;;;;;;20.30;94.08;101334.41;4956439;28;20078;-67
2022/08/27 05:28:20;;;;;;;25.25;14.02;;;;;;;20.22;94.00;101337.16;4956480;28;20491;-67
2022/08/27 05:30:48;;;;;;;19.17;13.65;;;;;;;20.19;94.57;101329.31;4956446;28;20043;-67
2022/08/27 05:33:16;;;;;;;21.25;13.60;;;;;;;20.34;94.39;101335.78;4973415;28;20035;-67
2022/08/27 05:35:55;;;;;;;23.23;14.38;;;;;;;20.30;93.66;101334.41;4956459;28;20078;-66
2022/08/27 05:38:23;;;;;;;17.77;14.23;;;;;;;20.34;93.86;101335.78;4973135;28;20026;-68
2022/08/27 05:40:50;;;;;;;14.32;12.80;;;;;;;20.39;93.70;101338.84;4973512;28;20077;-66
2022/08/27 05:43:17;;;;;;;19.55;13.20;;;;;;;20.46;94.16;101333.56;4973154;28;20034;-67
2022/08/27 05:45:45;;;;;;;27.17;13.45;;;;;;;20.41;93.82;101332.22;4973348;28;20035;-67
2022/08/27 05:48:11;;;;;;;25.38;14.45;;;;;;;20.40;93.52;101329.63;4956306;28;20159;-69
2022/08/27 05:50:38;;;;;;;23.58;14.40;;;;;;;20.37;93.26;101330.84;4973273;28;20107;-67
2022/08/27 05:53:04;;;;;;;22.75;13.60;;;;;;;20.46;92.90;101328.97;4973085;28;20037;-67
2022/08/27 05:55:35;;;;;;;20.05;13.45;;;;;;;20.48;93.29;101326.91;4973233;28;20031;-67
2022/08/27 05:58:01;;;;;;;21.60;13.38;;;;;;;20.52;92.90;101328.28;4955980;28;20376;-68
2022/08/27 06:03:11;;;;;;;22.17;13.40;;;;;;;20.71;92.25;101327.88;4973358;28;20117;-67
2022/08/27 06:05:37;;;;;;;21.83;12.02;;;;;;;20.91;91.60;101322.88;4955630;28;20042;-67
2022/08/27 06:08:03;;;;;;;17.67;11.55;;;;;;;20.94;90.77;101322.50;4973130;28;20031;-68
2022/08/27 06:10:29;;;;;;;19.13;12.73;;;;;;;20.89;90.48;101324.91;4972849;28;20038;-68
2022/08/27 06:12:54;;;;;;;28.65;13.60;;;;;;;20.90;90.31;101325.78;4971856;28;20031;-67
2022/08/27 06:15:23;;;;;;;17.50;11.85;;;;;;;20.98;90.28;101323.00;4972911;28;20031;-67
2022/08/27 06:17:49;;;;;;;16.02;12.65;;;;;;;21.01;90.31;101323.53;4973207;28;20424;-67
2022/08/27 06:20:14;;;;;;;21.30;12.70;;;;;;;21.05;89.59;101329.47;4973154;28;20046;-67
2022/08/27 06:22:40;;;;;;;17.90;12.70;;;;;;;20.81;90.67;101321.34;4975587;28;20472;-67
2022/08/27 06:25:06;;;;;;;18.80;12.55;;;;;;;21.02;90.44;101330.69;4976322;28;20026;-66
2022/08/27 06:27:32;;;;;;;21.00;12.48;;;;;;;21.12;89.70;101327.72;4976508;28;20602;-67
2022/08/27 06:29:57;;;;;;;17.55;12.35;;;;;;;21.20;89.11;101322.22;4976998;28;20030;-68
2022/08/27 06:32:24;;;;;;;20.25;11.27;;;;;;;21.33;88.97;101310.72;4977088;28;20034;-67
2022/08/27 06:34:50;;;;;;;18.75;11.60;;;;;;;21.46;88.04;101321.09;4959025;28;20019;-67
2022/08/27 06:37:16;;;;;;;17.42;11.57;;;;;;;21.51;87.33;101318.69;4976303;28;20041;-67
2022/08/27 06:39:41;;;;;;;19.83;12.35;;;;;;;21.47;88.31;101314.56;4958859;28;20031;-68
2022/08/27 06:42:11;;;;;;;21.55;12.02;;;;;;;21.73;86.80;101316.97;4958845;28;20110;-67
2022/08/27 06:44:36;;;;;;;17.23;11.88;;;;;;;21.38;87.92;101312.94;4959282;28;20125;-67
2022/08/27 06:47:02;;;;;;;16.63;11.90;;;;;;;21.37;87.58;101316.72;4976533;28;20077;-67
2022/08/27 06:49:28;;;;;;;17.17;11.20;;;;;;;21.71;87.16;101313.56;4958995;28;20402;-67
2022/08/27 06:51:54;;;;;;;19.38;12.10;;;;;;;21.89;86.28;101309.50;4958997;28;20030;-66
2022/08/27 06:54:20;;;;;;;18.58;10.98;;;;;;;22.43;84.35;101312.09;4958387;28;20475;-66
2022/08/27 06:56:48;;;;;;;14.50;10.07;;;;;;;22.48;83.16;101306.91;4958962;28;20039;-67
2022/08/27 06:59:16;;;;;;;15.35;10.85;;;;;;;22.10;83.19;101319.78;4976143;28;20114;-66
2022/08/27 07:01:45;;;;;;;17.08;9.77;;;;;;;22.46;82.45;101319.94;4958803;28;20030;-66
2022/08/27 07:04:15;;;;;;;20.73;10.85;;;;;;;22.22;82.96;101322.94;4976140;28;20027;-66
2022/08/27 07:06:41;;;;;;;20.92;11.25;;;;;;;21.74;85.11;101319.53;4976319;28;20326;-68
2022/08/27 07:09:07;;;;;;;16.75;11.32;;;;;;;21.62;85.79;101321.81;4957867;28;20035;-66
2022/08/27 07:11:33;;;;;;;15.95;10.88;;;;;;;21.69;85.53;101327.44;4975612;28;20109;-66
2022/08/27 07:13:59;;;;;;;15.73;10.88;;;;;;;21.76;85.72;101311.97;4958745;28;20121;-67
2022/08/27 07:16:27;;;;;;;26.40;11.90;;;;;;;21.73;85.76;101328.78;4975734;28;20031;-66
2022/08/27 07:18:56;;;;;;;20.90;11.63;;;;;;;21.75;86.10;101326.69;4958395;28;20039;-67
2022/08/27 07:21:22;;;;;;;22.67;11.48;;;;;;;21.75;85.89;101325.84;4975454;28;20041;-66
2022/08/27 07:23:50;;;;;;;22.60;12.02;;;;;;;21.72;86.40;101334.44;4975802;28;20058;-67
2022/08/27 07:26:18;;;;;;;18.90;10.70;;;;;;;21.76;85.59;101333.03;4975597;28;20059;-65
2022/08/27 07:28:45;;;;;;;19.77;10.63;;;;;;;21.75;86.32;101343.13;4975593;28;20076;-66
2022/08/27 07:31:15;;;;;;;17.30;10.57;;;;;;;21.66;86.62;101337.88;4975740;28;20031;-65
2022/08/27 07:33:40;;;;;;;20.75;10.38;;;;;;;21.67;86.22;101334.97;4957468;28;20038;-67
2022/08/27 07:36:06;;;;;;;18.45;10.73;;;;;;;21.71;85.74;101336.31;4975101;28;20026;-65
2022/08/27 07:38:33;;;;;;;16.58;10.10;;;;;;;21.74;85.89;101333.22;4958471;28;20380;-65
2022/08/27 07:40:59;;;;;;;19.40;11.32;;;;;;;21.86;86.02;101329.03;4975170;28;20031;-66
2022/08/27 07:46:09;;;;;;;16.45;10.45;;;;;;;21.95;85.73;101321.59;4975475;28;20057;-66
2022/08/27 07:48:34;;;;;;;19.27;10.70;;;;;;;21.77;85.85;101323.78;4975106;28;20479;-66
2022/08/27 07:51:04;;;;;;;15.63;10.23;;;;;;;21.82;85.74;101322.19;4975004;28;20046;-65
2022/08/27 07:53:31;;;;;;;14.93;9.90;;;;;;;21.90;85.79;101330.34;4975568;28;20042;-67
2022/08/27 07:56:05;;;;;;;16.60;10.00;;;;;;;21.87;85.62;101330.72;4957928;28;20030;-68
2022/08/27 07:58:31;;;;;;;16.08;10.50;;;;;;;21.88;85.10;101331.56;4974479;28;20031;-67
2022/08/27 08:00:57;;;;;;;18.65;10.52;;;;;;;21.79;85.54;101336.25;4974541;28;20502;-65
2022/08/27 08:03:22;;;;;;;17.55;11.13;;;;;;;21.82;85.73;101332.28;4957343;28;20071;-66
2022/08/27 08:05:49;;;;;;;22.83;11.55;;;;;;;21.79;86.28;101328.03;4974474;28;20039;-67
2022/08/27 08:08:21;;;;;;;17.30;11.27;;;;;;;21.77;86.57;101324.63;4974920;28;20037;-65
2022/08/27 08:10:47;;;;;;;22.48;11.75;;;;;;;21.60;86.63;101325.78;4957494;28;20031;-66
2022/08/27 08:13:17;;;;;;;22.13;12.30;;;;;;;21.75;86.89;101326.69;4956560;28;20041;-66
2022/08/27 08:15:45;;;;;;;21.08;11.50;;;;;;;22.04;86.04;101319.66;4957172;28;20088;-65
2022/08/27 08:18:12;;;;;;;21.90;11.70;;;;;;;22.16;85.01;101320.91;4974684;28;20033;-65
2022/08/27 08:20:38;;;;;;;19.23;10.65;;;;;;;22.37;84.40;101321.06;4957077;28;20035;-64
2022/08/27 08:23:04;;;;;;;20.23;11.80;;;;;;;22.38;83.75;101322.78;4957344;28;20411;-66
2022/08/27 08:25:30;;;;;;;17.92;11.93;;;;;;;22.14;83.58;101337.53;4974440;28;20070;-64
2022/08/27 08:27:55;;;;;;;25.55;11.55;;;;;;;22.30;83.18;101342.00;4957025;28;20031;-66
2022/08/27 08:30:21;;;;;;;20.10;11.70;;;;;;;22.32;83.34;101339.94;4956361;28;20038;-66
2022/08/27 08:32:47;;;;;;;17.23;12.07;;;;;;;22.20;83.42;101335.97;4957018;28;20129;-66
2022/08/27 08:35:13;;;;;;;22.42;12.45;;;;;;;21.91;85.02;101337.53;4956462;28;20463;-66
2022/08/27 08:37:42;;;;;;;19.92;12.10;;;;;;;21.61;86.43;101341.16;4974230;28;20031;-64
2022/08/27 08:40:09;;;;;;;23.75;12.27;;;;;;;21.46;87.68;101332.88;4974308;28;20107;-66
2022/08/27 08:42:45;;;;;;;19.88;10.70;;;;;;;21.65;87.05;101341.66;4956768;28;20045;-65
2022/08/27 08:45:15;;;;;;;21.75;11.27;;;;;;;21.76;86.90;101342.09;4956447;28;20031;-65
2022/08/27 08:47:49;;;;;;;20.90;12.07;;;;;;;21.71;87.25;101341.78;4956728;28;20121;-65
2022/08/27 08:50:18;;;;;;;23.02;11.60;;;;;;;21.62;87.63;101342.88;4974179;28;20043;-66
2022/08/27 08:53:00;;;;;;;18.52;11.20;;;;;;;21.74;87.12;101333.22;4956687;28;20497;-65
2022/08/27 08:55:46;;;;;;;17.65;10.18;;;;;;;21.88;86.56;101326.94;4956464;28;20041;-65
2022/08/27 08:58:28;;;;;;;17.73;10.85;;;;;;;21.80;86.54;101335.22;4973973;28;20031;-66
2022/08/27 09:00:58;;;;;;;13.55;11.30;;;;;;;21.93;86.30;101335.47;4973996;28;20157;-67
2022/08/27 09:03:25;;;;;;;14.50;10.73;;;;;;;22.09;85.88;101328.19;4956352;28;20119;-66
2022/08/27 09:06:37;;;;;;;19.70;11.13;;;;;;;22.13;86.04;101334.97;4956478;28;20428;-65
2022/08/27 09:09:15;;;;;;;19.35;9.98;;;;;;;22.39;84.91;101329.97;4963191;28;20054;-66
2022/08/27 09:12:02;;;;;;;21.40;11.18;;;;;;;22.27;84.69;101331.44;4972064;28;20190;-66
2022/08/27 09:14:37;;;;;;;20.23;11.25;;;;;;;22.34;84.12;101337.88;4956085;28;20456;-67
2022/08/27 09:17:04;;;;;;;16.58;11.25;;;;;;;22.69;83.87;101327.25;4973411;28;20438;-66
2022/08/27 09:19:30;;;;;;;16.30;10.18;;;;;;;22.55;83.39;101330.84;4955756;28;20058;-65
2022/08/27 09:22:13;;;;;;;16.65;10.68;;;;;;;22.64;82.73;101322.31;4972031;28;20089;-66
2022/08/27 09:25:10;;;;;;;17.42;9.93;;;;;;;22.77;82.86;101321.66;4955854;28;20043;-65
2022/08/27 09:27:40;;;;;;;14.48;10.10;;;;;;;23.06;80.95;101310.72;4956046;28;20153;-65
2022/08/27 09:30:12;;;;;;;17.83;9.93;;;;;;;22.93;81.53;101316.03;4955805;28;20069;-65
2022/08/27 09:32:39;;;;;;;17.30;10.55;;;;;;;23.13;80.47;101320.91;4973179;28;20031;-66
2022/08/27 09:35:08;;;;;;;16.27;10.43;;;;;;;23.36;79.83;101316.16;4955904;28;20030;-66
2022/08/27 09:37:46;;;;;;;16.80;9.20;;;;;;;23.32;79.37;101321.16;4971151;28;20456;-65
2022/08/27 09:40:38;;;;;;;13.45;10.20;;;;;;;23.39;78.86;101318.50;4972958;28;20538;-65
2022/08/27 09:43:21;;;;;;;14.25;9.50;;;;;;;23.64;78.40;101314.38;4955562;28;20387;-65
2022/08/27 09:45:53;;;;;;;20.50;10.20;;;;;;;23.43;77.92;101317.06;4973389;28;20396;-66
2022/08/27 09:48:23;;;;;;;18.05;9.43;;;;;;;23.88;77.18;101309.56;4973148;28;20041;-65
2022/08/27 09:50:55;;;;;;;22.67;9.88;;;;;;;23.92;76.72;101305.38;4955624;28;20510;-66
2022/08/27 09:53:35;;;;;;;17.58;9.02;;;;;;;24.17;76.17;101314.00;4972788;28;20406;-67
2022/08/27 09:56:06;;;;;;;16.70;9.65;;;;;;;24.01;75.42;101305.00;4955383;28;20027;-64
2022/08/27 09:59:14;;;;;;;15.07;9.77;;;;;;;23.86;76.02;101306.16;4955396;28;20125;-66
2022/08/27 10:01:53;;;;;;;15.07;9.45;;;;;;;23.64;76.59;101308.88;4937155;28;20036;-65
2022/08/27 10:04:41;;;;;;;23.48;10.35;;;;;;;23.27;77.22;101317.28;4955638;28;20039;-66
2022/08/27 10:07:23;;;;;;;16.35;9.32;;;;;;;23.49;77.02;101305.31;4955278;28;20034;-65
2022/08/27 10:10:24;;;;;;;12.65;8.63;;;;;;;25.00;74.08;101304.06;4972913;28;20459;-66
2022/08/27 10:13:08;;;;;;;17.38;8.82;;;;;;;24.99;72.07;101302.31;4955384;28;20041;-66
2022/08/27 10:15:45;;;;;;;19.30;10.00;;;;;;;24.37;72.75;101308.72;4955060;28;20340;-66
2022/08/27 10:18:17;;;;;;;17.88;9.05;;;;;;;24.93;71.85;101304.00;4972278;28;20105;-64
2022/08/27 10:20:51;;;;;;;17.35;8.65;;;;;;;24.83;70.61;101304.34;4955194;28;20452;-65
2022/08/27 10:23:19;;;;;;;;;;;;;;;24.75;71.28;101310.03;4955941;28;20038;-65
2022/08/27 10:26:14;;;;;;;16.92;9.10;;;;;;;24.56;72.63;101305.28;4972615;28;19929;-65
2022/08/27 10:29:12;;;;;;;17.17;8.60;;;;;;;25.02;71.01;101307.44;4954865;28;20034;-65
2022/08/27 10:31:44;;;;;;;22.15;9.70;;;;;;;24.90;70.76;101310.75;4971052;28;20050;-66
2022/08/27 10:34:23;;;;;;;18.00;9.18;;;;;;;26.00;68.46;101304.13;4971997;28;20048;-65
2022/08/27 10:37:20;;;;;;;11.32;8.50;;;;;;;26.65;66.32;101299.66;4971107;28;20071;-65
2022/08/27 10:40:14;;;;;;;16.08;9.40;;;;;;;26.49;65.78;101305.63;4955197;28;20043;-64
2022/08/27 10:42:58;;;;;;;21.70;8.60;;;;;;;25.80;68.12;101303.28;4966846;28;20042;-65
2022/08/27 10:45:41;;;;;;;15.88;8.23;;;;;;;26.69;65.54;101303.69;4972260;28;20030;-65
2022/08/27 10:48:29;;;;;;;16.13;8.80;;;;;;;26.36;66.00;101311.16;4971112;28;20094;-64
2022/08/27 10:51:30;;;;;;;15.48;9.13;;;;;;;25.57;67.91;101311.06;4971037;28;20129;-65
2022/08/27 10:54:19;;;;;;;15.75;9.25;;;;;;;26.36;66.72;101316.66;4954677;28;20086;-65
2022/08/27 10:56:55;;;;;;;19.00;9.90;;;;;;;25.71;67.24;101307.31;4954753;28;20042;-65
2022/08/27 11:00:00;;;;;;;15.63;8.35;;;;;;;26.09;67.40;101304.78;4971781;28;20026;-65
2022/08/27 11:02:40;;;;;;;19.42;9.13;;;;;;;26.02;67.80;101303.91;4946102;28;20101;-65
2022/08/27 11:05:44;;;;;;;19.60;9.60;;;;;;;25.60;67.59;101294.09;4972101;28;20027;-65
2022/08/27 11:08:17;;;;;;;11.48;8.52;;;;;;;25.27;69.26;101300.38;4949389;28;20483;-64
2022/08/27 11:10:48;;;;;;;19.35;9.15;;;;;;;25.30;70.12;101310.97;4973961;28;20376;-64
2022/08/27 11:13:23;;;;;;;17.77;9.05;;;;;;;25.78;68.46;101308.16;4974888;28;20058;-65
2022/08/27 11:15:55;;;;;;;17.23;9.82;;;;;;;25.25;68.65;101313.50;4958259;28;20042;-64
2022/08/27 11:18:43;;;;;;;14.45;8.48;;;;;;;25.84;67.69;101310.06;4975662;28;20022;-64
2022/08/27 11:21:35;;;;;;;14.07;7.82;;;;;;;25.81;66.73;101307.72;4957702;28;20031;-64
2022/08/27 11:24:13;;;;;;;23.55;9.60;;;;;;;25.56;67.08;101303.84;4975568;28;20105;-64
2022/08/27 11:26:41;;;;;;;13.43;8.63;;;;;;;25.79;66.38;101301.59;4975259;28;20096;-64
2022/08/27 11:29:17;;;;;;;17.90;8.27;;;;;;;25.56;66.23;101303.84;4974978;28;20031;-63
2022/08/27 11:32:31;;;;;;;12.18;7.80;;;;;;;26.01;64.72;101303.06;4973990;28;20043;-66